Etusivu
METAR-TAF:

METAR-TAF

Lentoasemat :

Vuoreija, Norja

Leveyspiiri: 70-21N, Pituuspiiri: 031-03E, korkeus merenpinnasta: 12 m

Tämänhetkinen sää

Tämä raportti tehtiin 48 minuuttia sitten, kello 19.50 UTC
Tuuli 10 kn lännestä/lounaasta
Lämpötila 5°C
Kosteus 81%
Ilmanpaine 1009 hPa
Näkyvyys 10 km tai enemmän
Hajanaisia pilviä 4000 ft:n korkeudessa
Hajonneita pilviä 7000 ft:n korkeudessa

METAR: ENSS 161950Z 24010KT 9999 SCT040 BKN070 05/02 Q1009 RMK WIND 500FT 25018KT

Aika: 22:38 (20:38 UTC)


TAF: puuttuu

Säähavainnot ja -ennusteet yli 4000 lentoasemalta (METAR- ja TAF-raportit).

Käytössä olevat sääasemat on merkitty karttaan keltaisilla ja punaisilla pisteillä.

Aseta hiiri pisteen päälle nähdäksesi sääaseman nimen.

Klikkaa sitten nähdäksesi säähavainnot ja -ennusteet.

Kartan vaihtaminen: klikkaa mustalla rastilla varustettuja vihreitä pisteitä, niin voit zoomata sisään; viivalla varustettua vihreää pistettä, niin voit zoomata ulos tai vihreitä nuolia, niin pääset viereisille kartoille.


METAR-TAF: